createdAt,value
2022-11-24T00:02:24.791Z,51.10
2022-11-24T00:04:51.711Z,50.80
2022-11-24T00:07:18.435Z,51.30
2022-11-24T00:09:45.336Z,52.20
2022-11-24T00:12:12.359Z,51.60
2022-11-24T00:14:39.054Z,51.10
2022-11-24T00:17:06.491Z,51.10
2022-11-24T00:19:33.415Z,51.70
2022-11-24T00:22:00.104Z,52.00
2022-11-24T00:24:26.926Z,51.20
2022-11-24T00:26:53.915Z,51.10
2022-11-24T00:29:20.652Z,51.70
2022-11-24T00:31:47.377Z,52.10
2022-11-24T00:34:14.477Z,52.20
2022-11-24T00:36:41.848Z,52.00
2022-11-24T00:39:11.412Z,51.70
2022-11-24T00:41:38.708Z,51.30
2022-11-24T00:44:05.588Z,51.70
2022-11-24T00:46:32.676Z,52.50
2022-11-24T00:49:00.581Z,52.20
2022-11-24T00:51:29.913Z,51.90
2022-11-24T00:53:57.287Z,51.30
2022-11-24T00:56:24.681Z,51.70
2022-11-24T00:58:51.667Z,52.30
2022-11-24T01:01:19.966Z,52.40
2022-11-24T01:03:47.549Z,51.70
2022-11-24T01:06:16.104Z,50.90
2022-11-24T01:08:43.437Z,51.30
2022-11-24T01:11:19.425Z,52.00
2022-11-24T01:13:47.483Z,52.30
2022-11-24T01:16:33.645Z,51.80
2022-11-24T01:19:01.341Z,51.10
2022-11-24T01:21:28.122Z,51.00
2022-11-24T01:23:54.850Z,51.90
2022-11-24T01:26:22.583Z,52.30
2022-11-24T01:28:56.341Z,52.30
2022-11-24T01:31:23.461Z,51.80
2022-11-24T01:33:50.210Z,51.20
2022-11-24T01:36:16.969Z,51.90
2022-11-24T01:38:43.911Z,52.10
2022-11-24T01:41:12.744Z,52.40
2022-11-24T01:43:40.070Z,51.60
2022-11-24T01:46:13.882Z,50.90
2022-11-24T01:48:47.115Z,51.30
2022-11-24T01:51:16.718Z,52.20
2022-11-24T01:53:45.713Z,52.10
2022-11-24T01:56:13.126Z,52.10
2022-11-24T01:58:40.704Z,50.80
2022-11-24T02:01:08.698Z,51.70
2022-11-24T02:03:36.997Z,52.40
2022-11-24T02:06:12.267Z,52.20
2022-11-24T02:08:49.406Z,51.20
2022-11-24T02:11:16.111Z,51.40
2022-11-24T02:13:43.627Z,51.50
2022-11-24T02:16:11.219Z,52.20
2022-11-24T02:18:38.932Z,52.40
2022-11-24T02:21:06.025Z,51.70
2022-11-24T02:23:43.765Z,51.30
2022-11-24T02:26:25.786Z,51.10
2022-11-24T02:28:52.606Z,52.10
2022-11-24T02:31:19.484Z,52.10
2022-11-24T02:33:46.998Z,51.60
2022-11-24T02:36:13.708Z,50.90
2022-11-24T02:38:40.415Z,51.10
2022-11-24T02:41:08.826Z,51.80
2022-11-24T02:43:39.007Z,52.20
2022-11-24T02:46:06.143Z,51.90
2022-11-24T02:48:32.895Z,50.90
2022-11-24T02:50:59.809Z,50.80
2022-11-24T02:53:26.630Z,51.60
2022-11-24T02:55:53.465Z,52.20
2022-11-24T02:58:20.254Z,51.50
2022-11-24T03:00:46.940Z,50.60
2022-11-24T03:03:14.120Z,50.40
2022-11-24T03:05:40.905Z,51.70
2022-11-24T03:08:07.704Z,52.10
2022-11-24T03:10:34.436Z,51.30
2022-11-24T03:13:01.256Z,50.90
2022-11-24T03:15:28.001Z,50.70
2022-11-24T03:17:55.418Z,51.60
2022-11-24T03:20:22.443Z,51.80
2022-11-24T03:22:49.508Z,51.20
2022-11-24T03:25:16.440Z,50.70
2022-11-24T03:27:43.171Z,50.50
2022-11-24T03:30:10.430Z,51.80
2022-11-24T03:32:37.156Z,52.10
2022-11-24T03:35:04.145Z,50.70
2022-11-24T03:37:30.954Z,50.40
2022-11-24T03:39:57.672Z,50.90
2022-11-24T03:42:24.485Z,51.90
2022-11-24T03:44:51.547Z,52.00
2022-11-24T03:47:18.298Z,52.00
2022-11-24T03:49:45.864Z,50.40
2022-11-24T03:52:12.624Z,50.30
2022-11-24T03:54:39.334Z,51.50
2022-11-24T03:57:06.802Z,52.00
2022-11-24T03:59:33.571Z,51.10
2022-11-24T04:02:00.503Z,51.30
2022-11-24T04:04:27.230Z,51.70
2022-11-24T04:06:53.921Z,51.80
2022-11-24T04:09:20.629Z,52.10
2022-11-24T04:12:05.956Z,51.80
2022-11-24T04:14:32.972Z,51.60
2022-11-24T04:17:01.201Z,51.30
2022-11-24T04:19:27.927Z,51.00
2022-11-24T04:21:54.872Z,51.10
2022-11-24T04:24:21.721Z,50.60
2022-11-24T04:26:48.522Z,51.10
2022-11-24T04:29:15.269Z,51.40
2022-11-24T04:31:42.026Z,51.50
2022-11-24T04:34:08.843Z,51.10
2022-11-24T04:36:36.006Z,51.00
2022-11-24T04:39:25.368Z,50.90
2022-11-24T04:41:49.670Z,51.60
2022-11-24T04:44:16.607Z,51.10
2022-11-24T04:46:43.401Z,51.00
2022-11-24T04:49:11.838Z,50.90
2022-11-24T04:51:39.004Z,51.90
2022-11-24T04:54:06.498Z,51.90
2022-11-24T04:56:33.446Z,51.90
2022-11-24T04:59:05.133Z,51.70
2022-11-24T05:01:34.751Z,51.80
2022-11-24T05:04:01.645Z,52.00
2022-11-24T05:06:28.430Z,52.10
2022-11-24T05:08:55.139Z,51.90
2022-11-24T05:11:21.813Z,51.50
2022-11-24T05:13:48.613Z,51.70
2022-11-24T05:16:15.827Z,52.10
2022-11-24T05:18:42.724Z,52.00
2022-11-24T05:21:09.401Z,51.70
2022-11-24T05:23:36.140Z,51.30
2022-11-24T05:26:03.331Z,51.90
2022-11-24T05:28:30.828Z,51.80
2022-11-24T05:31:01.098Z,52.00
2022-11-24T05:33:28.679Z,51.40
2022-11-24T05:35:56.233Z,50.50
2022-11-24T05:38:23.763Z,51.70
2022-11-24T05:40:52.115Z,51.70
2022-11-24T05:43:18.758Z,51.90
2022-11-24T05:45:45.518Z,51.90
2022-11-24T05:48:16.312Z,51.50
2022-11-24T05:50:43.106Z,51.40
2022-11-24T05:53:11.370Z,51.70
2022-11-24T05:55:39.009Z,51.80
2022-11-24T05:58:06.788Z,51.40
2022-11-24T06:00:34.964Z,50.70
2022-11-24T06:03:02.037Z,51.10
2022-11-24T06:05:29.454Z,52.00
2022-11-24T06:07:56.545Z,51.50
2022-11-24T06:10:26.349Z,51.30
2022-11-24T06:12:53.002Z,51.10
2022-11-24T06:15:19.774Z,51.60
2022-11-24T06:17:52.791Z,52.00
2022-11-24T06:20:19.965Z,51.70
2022-11-24T06:22:46.608Z,50.80
2022-11-24T06:25:13.355Z,50.80
2022-11-24T06:27:39.994Z,51.10
2022-11-24T06:30:06.855Z,51.60
2022-11-24T06:32:33.573Z,51.60
2022-11-24T06:35:00.241Z,51.30
2022-11-24T06:37:27.106Z,51.20
2022-11-24T06:39:53.844Z,50.90
2022-11-24T06:42:21.595Z,51.50
2022-11-24T06:44:48.624Z,51.50
2022-11-24T06:47:15.424Z,51.40
2022-11-24T06:49:42.246Z,50.20
2022-11-24T06:52:08.954Z,50.60
2022-11-24T06:54:36.089Z,51.40
2022-11-24T06:57:03.016Z,51.00
2022-11-24T06:59:29.774Z,51.50
2022-11-24T07:01:56.480Z,51.20
2022-11-24T07:04:23.184Z,51.20
2022-11-24T07:06:49.878Z,51.30
2022-11-24T07:09:16.592Z,50.70
2022-11-24T07:11:43.366Z,49.90
2022-11-24T07:14:10.304Z,51.10
2022-11-24T07:16:37.411Z,51.10
2022-11-24T07:19:04.254Z,50.70
2022-11-24T07:21:30.979Z,50.80
2022-11-24T07:23:58.060Z,50.90
2022-11-24T07:26:24.975Z,51.30
2022-11-24T07:28:51.822Z,51.00
2022-11-24T07:31:19.594Z,51.30
2022-11-24T07:33:50.035Z,50.80
2022-11-24T07:36:16.869Z,49.50
2022-11-24T07:38:43.549Z,52.80
2022-11-24T07:41:11.036Z,52.70
2022-11-24T07:43:38.395Z,53.40
2022-11-24T07:46:05.959Z,52.60
2022-11-24T07:48:33.406Z,50.70
2022-11-24T07:51:00.614Z,52.60
2022-11-24T07:53:27.414Z,52.60
2022-11-24T07:55:55.607Z,52.20
2022-11-24T07:58:22.489Z,52.30
2022-11-24T08:00:49.197Z,52.10
2022-11-24T08:03:16.526Z,52.30
2022-11-24T08:06:07.954Z,52.50
2022-11-24T08:08:33.237Z,52.30
2022-11-24T08:11:10.918Z,52.20
2022-11-24T08:13:38.178Z,51.90
2022-11-24T08:16:08.882Z,52.80
2022-11-24T08:18:36.224Z,52.60
2022-11-24T08:21:03.161Z,52.40
2022-11-24T08:23:29.977Z,52.60
2022-11-24T08:25:57.196Z,52.40
2022-11-24T08:28:24.095Z,53.10
2022-11-24T08:30:51.258Z,53.00
2022-11-24T08:33:17.950Z,53.00
2022-11-24T08:35:44.604Z,52.30
2022-11-24T08:38:11.313Z,53.00
2022-11-24T08:40:37.992Z,53.00
2022-11-24T08:43:04.746Z,53.10
2022-11-24T08:45:33.344Z,53.00
2022-11-24T08:48:02.089Z,52.60
2022-11-24T08:50:28.744Z,52.00
2022-11-24T08:52:55.624Z,52.10
2022-11-24T08:55:22.357Z,52.30
2022-11-24T08:57:49.059Z,52.90
2022-11-24T09:00:22.199Z,53.10
2022-11-24T09:02:58.492Z,52.80
2022-11-24T09:05:50.748Z,52.90
2022-11-24T09:08:12.342Z,52.50
2022-11-24T09:10:39.010Z,52.90
2022-11-24T09:13:05.699Z,52.90
2022-11-24T09:15:32.383Z,52.90
2022-11-24T09:17:59.098Z,52.90
2022-11-24T09:20:25.812Z,52.90
2022-11-24T09:22:52.606Z,53.00
2022-11-24T09:25:19.275Z,53.10
2022-11-24T09:27:45.970Z,53.10
2022-11-24T09:30:12.903Z,53.20
2022-11-24T09:32:39.593Z,53.30
2022-11-24T09:35:07.374Z,53.40
2022-11-24T09:37:34.201Z,53.30
2022-11-24T09:40:00.939Z,53.30
2022-11-24T09:42:43.476Z,53.30
2022-11-24T09:45:13.275Z,53.50
2022-11-24T09:47:59.174Z,53.50
2022-11-24T09:50:28.111Z,53.60
2022-11-24T09:52:54.891Z,53.70
2022-11-24T09:55:31.696Z,53.70
2022-11-24T09:58:06.172Z,53.80
2022-11-24T10:00:33.621Z,53.90
2022-11-24T10:03:00.310Z,53.80
2022-11-24T10:05:29.076Z,53.90
2022-11-24T10:08:03.465Z,53.70
2022-11-24T10:10:39.219Z,54.00
2022-11-24T10:13:32.323Z,54.00
2022-11-24T10:16:04.221Z,54.00
2022-11-24T10:18:34.203Z,54.10
2022-11-24T10:21:21.229Z,53.90
2022-11-24T10:23:53.926Z,54.00
2022-11-24T10:26:32.043Z,54.10
2022-11-24T10:28:58.922Z,54.20
2022-11-24T10:31:44.627Z,54.00
2022-11-24T10:34:18.711Z,54.00
2022-11-24T10:37:05.652Z,54.20
2022-11-24T10:39:32.470Z,54.40
2022-11-24T10:42:03.285Z,54.30
2022-11-24T10:44:29.924Z,54.30
2022-11-24T10:46:56.636Z,54.40
2022-11-24T10:49:30.057Z,54.40
2022-11-24T10:52:12.645Z,54.40
2022-11-24T10:54:58.876Z,54.40
2022-11-24T10:57:29.691Z,54.50
2022-11-24T10:59:56.859Z,55.00
2022-11-24T11:02:36.342Z,54.50
2022-11-24T11:05:21.882Z,54.50
2022-11-24T11:07:48.891Z,54.50
2022-11-24T11:10:22.950Z,54.90
2022-11-24T11:12:49.966Z,54.90
2022-11-24T11:15:27.161Z,54.80
2022-11-24T11:17:57.432Z,54.70
2022-11-24T11:20:27.329Z,54.80
2022-11-24T11:22:54.517Z,54.50
2022-11-24T11:25:21.310Z,54.30
2022-11-24T11:27:48.388Z,54.20
2022-11-24T11:36:08.920Z,54.40
2022-11-24T11:38:37.644Z,54.40
2022-11-24T11:41:05.807Z,54.50
2022-11-24T11:43:35.863Z,54.20
2022-11-24T11:46:05.152Z,54.30
2022-11-24T11:48:42.368Z,54.70
2022-11-24T11:51:25.567Z,54.70
2022-11-24T11:54:04.685Z,54.60
2022-11-24T11:56:34.967Z,54.70
2022-11-24T11:59:20.411Z,54.80
2022-11-24T12:02:19.865Z,55.10
2022-11-24T12:04:55.638Z,55.10
2022-11-24T12:07:22.304Z,54.60
2022-11-24T12:09:51.988Z,55.10
2022-11-24T12:12:37.622Z,55.30
2022-11-24T12:15:10.318Z,55.40
2022-11-24T12:17:45.007Z,55.20
2022-11-24T12:20:23.571Z,55.10
2022-11-24T12:23:13.555Z,55.10
2022-11-24T12:25:42.583Z,55.30
2022-11-24T12:28:24.612Z,55.50
2022-11-24T12:30:51.250Z,55.50
2022-11-24T12:33:30.179Z,55.20
2022-11-24T12:36:07.663Z,54.90
2022-11-24T12:38:34.308Z,55.30
2022-11-24T12:44:12.795Z,55.40
2022-11-24T12:46:54.353Z,55.30
2022-11-24T12:49:38.095Z,55.00
2022-11-24T12:52:08.323Z,55.10
2022-11-24T12:54:38.902Z,55.20
2022-11-24T12:57:09.358Z,55.80
2022-11-24T12:59:43.839Z,55.50
2022-11-24T13:02:16.639Z,55.20
2022-11-24T13:04:43.450Z,55.20
2022-11-24T13:07:11.565Z,55.40
2022-11-24T13:09:38.392Z,55.60
2022-11-24T13:12:10.768Z,55.50
2022-11-24T13:14:38.100Z,55.40
2022-11-24T13:17:37.119Z,55.30
2022-11-24T13:20:14.329Z,55.30
2022-11-24T13:22:45.422Z,55.50
2022-11-24T13:25:14.632Z,55.50
2022-11-24T13:27:48.661Z,55.10
2022-11-24T13:30:33.760Z,55.80
2022-11-24T13:33:16.480Z,55.30
2022-11-24T13:36:04.263Z,55.60
2022-11-24T13:38:46.314Z,55.70
2022-11-24T13:41:31.327Z,55.40
2022-11-24T13:44:13.419Z,55.20
2022-11-24T13:47:05.326Z,55.50
2022-11-24T13:49:43.634Z,55.80
2022-11-24T13:52:29.042Z,55.70
2022-11-24T13:54:58.009Z,55.10
2022-11-24T13:57:35.200Z,55.60
2022-11-24T14:00:02.525Z,55.90
2022-11-24T14:02:30.445Z,56.00
2022-11-24T14:04:58.370Z,55.80
2022-11-24T14:07:25.156Z,55.20
2022-11-24T14:09:52.177Z,55.30
2022-11-24T14:12:19.338Z,55.60
2022-11-24T14:14:55.482Z,55.90
2022-11-24T14:17:23.477Z,55.80
2022-11-24T14:19:51.998Z,55.40
2022-11-24T14:22:39.349Z,55.30
2022-11-24T14:25:06.325Z,55.60
2022-11-24T14:27:35.253Z,55.90
2022-11-24T14:30:03.808Z,55.70
2022-11-24T14:32:30.512Z,55.60
2022-11-24T14:34:57.580Z,55.20
2022-11-24T14:37:24.344Z,55.70
2022-11-24T14:39:51.065Z,56.00
2022-11-24T14:42:22.145Z,55.90
2022-11-24T14:44:48.846Z,55.70
2022-11-24T14:47:28.790Z,55.50
2022-11-24T14:49:58.327Z,56.30
2022-11-24T14:52:25.589Z,55.80
2022-11-24T14:54:53.825Z,55.90
2022-11-24T14:57:23.329Z,55.70
2022-11-24T15:00:08.990Z,55.60
2022-11-24T15:02:41.332Z,55.80
2022-11-24T15:05:08.457Z,56.00
2022-11-24T15:07:36.704Z,55.90
2022-11-24T15:10:04.432Z,55.60
2022-11-24T15:12:40.801Z,55.70
2022-11-24T15:15:13.541Z,55.80
2022-11-24T15:17:50.567Z,55.80
2022-11-24T15:20:20.193Z,55.60
2022-11-24T15:22:46.985Z,55.50
2022-11-24T15:25:25.661Z,55.40
2022-11-24T15:27:52.671Z,55.60
2022-11-24T15:30:19.390Z,55.40
2022-11-24T15:32:56.493Z,55.20
2022-11-24T15:35:24.100Z,55.30
2022-11-24T15:37:50.836Z,55.30
2022-11-24T15:40:17.819Z,55.30
2022-11-24T15:42:54.766Z,55.20
2022-11-24T15:45:22.960Z,55.50
2022-11-24T15:47:49.879Z,55.50
2022-11-24T15:50:16.630Z,55.60
2022-11-24T15:52:43.626Z,56.00
2022-11-24T15:55:20.804Z,55.50
2022-11-24T15:57:47.923Z,55.60
2022-11-24T16:00:24.166Z,55.70
2022-11-24T16:03:02.061Z,55.70
2022-11-24T16:05:40.513Z,55.50
2022-11-24T16:08:12.548Z,55.50
2022-11-24T16:10:39.197Z,55.60
2022-11-24T16:13:05.860Z,55.60
2022-11-24T16:15:32.503Z,56.30
2022-11-24T16:17:59.231Z,58.30
2022-11-24T16:20:25.931Z,59.80
2022-11-24T16:22:52.691Z,60.60
2022-11-24T16:25:19.440Z,59.10
2022-11-24T16:27:46.273Z,58.50
2022-11-24T16:30:13.428Z,57.80
2022-11-24T16:32:40.124Z,57.50
2022-11-24T16:35:06.925Z,57.50
2022-11-24T16:37:33.630Z,57.30
2022-11-24T16:40:02.583Z,56.80
2022-11-24T16:42:29.677Z,57.30
2022-11-24T16:44:56.472Z,57.30
2022-11-24T16:47:23.476Z,57.10
2022-11-24T16:49:50.289Z,57.30
2022-11-24T16:52:17.264Z,57.10
2022-11-24T16:54:45.511Z,57.50
2022-11-24T16:57:14.900Z,56.50
2022-11-24T16:59:43.516Z,57.30
2022-11-24T17:02:12.357Z,57.60
2022-11-24T17:04:39.132Z,57.90
2022-11-24T17:07:05.824Z,57.80
2022-11-24T17:09:37.397Z,57.70
2022-11-24T17:12:06.933Z,57.40
2022-11-24T17:14:33.863Z,57.50
2022-11-24T17:17:00.857Z,57.90
2022-11-24T17:19:27.618Z,58.00
2022-11-24T17:21:54.628Z,57.70
2022-11-24T17:24:21.594Z,57.50
2022-11-24T17:26:49.394Z,57.60
2022-11-24T17:29:16.084Z,57.60
2022-11-24T17:31:42.767Z,57.70
2022-11-24T17:34:10.429Z,57.50
2022-11-24T17:36:37.285Z,57.50
2022-11-24T17:39:05.144Z,57.40
2022-11-24T17:41:32.289Z,57.30
2022-11-24T17:43:59.071Z,57.50
2022-11-24T17:46:26.799Z,57.50
2022-11-24T17:48:53.596Z,57.10
2022-11-24T17:51:21.840Z,57.30
2022-11-24T17:53:49.603Z,57.20
2022-11-24T17:56:21.785Z,57.10
2022-11-24T17:58:49.441Z,57.50
2022-11-24T18:01:16.269Z,56.90
2022-11-24T18:03:43.178Z,57.30
2022-11-24T18:06:11.297Z,57.00
2022-11-24T18:08:38.711Z,56.90
2022-11-24T18:11:05.451Z,57.30
2022-11-24T18:13:54.855Z,57.00
2022-11-24T18:16:19.223Z,57.00
2022-11-24T18:18:50.109Z,57.00
2022-11-24T18:21:17.773Z,56.90
2022-11-24T18:23:44.888Z,57.10
2022-11-24T18:26:13.091Z,57.40
2022-11-24T18:28:39.829Z,56.70
2022-11-24T18:31:07.682Z,57.10
2022-11-24T18:33:38.234Z,57.30
2022-11-24T18:36:06.790Z,57.30
2022-11-24T18:38:39.309Z,57.30
2022-11-24T18:41:06.506Z,57.00
2022-11-24T18:43:34.601Z,56.80
2022-11-24T18:46:04.028Z,57.00
2022-11-24T18:48:30.916Z,57.00
2022-11-24T18:50:57.621Z,56.80
2022-11-24T18:53:25.305Z,56.80
2022-11-24T18:55:59.322Z,56.90
2022-11-24T18:58:28.690Z,56.90
2022-11-24T19:01:04.875Z,57.00
2022-11-24T19:03:31.587Z,56.90
2022-11-24T19:06:01.478Z,56.90
2022-11-24T19:08:28.148Z,56.80
2022-11-24T19:10:54.797Z,57.00
2022-11-24T19:13:21.499Z,56.90
2022-11-24T19:15:49.553Z,56.90
2022-11-24T19:18:16.389Z,56.90
2022-11-24T19:20:43.082Z,56.80
2022-11-24T19:23:11.845Z,57.00
2022-11-24T19:25:38.513Z,57.10
2022-11-24T19:28:05.808Z,57.50
2022-11-24T19:30:32.624Z,56.90
2022-11-24T19:32:59.375Z,56.90
2022-11-24T19:35:26.263Z,57.00
2022-11-24T19:37:53.614Z,56.70
2022-11-24T19:40:20.391Z,56.60
2022-11-24T19:42:47.074Z,56.70
2022-11-24T19:45:13.807Z,56.80
2022-11-24T19:47:40.584Z,56.90
2022-11-24T19:50:10.536Z,56.60
2022-11-24T19:52:37.465Z,56.90
2022-11-24T19:55:04.334Z,57.00
2022-11-24T19:57:30.985Z,57.00
2022-11-24T19:59:58.070Z,57.00
2022-11-24T20:02:24.970Z,57.20
2022-11-24T20:04:51.764Z,56.80
2022-11-24T20:07:20.408Z,57.00
2022-11-24T20:09:47.313Z,56.80
2022-11-24T20:12:14.933Z,56.70
2022-11-24T20:14:41.675Z,57.00
2022-11-24T20:17:08.368Z,56.70
2022-11-24T20:19:35.133Z,56.90
2022-11-24T20:22:02.022Z,56.80
2022-11-24T20:24:28.729Z,56.70
2022-11-24T20:26:56.462Z,56.70
2022-11-24T20:29:23.210Z,56.20
2022-11-24T20:31:51.377Z,56.50
2022-11-24T20:34:20.113Z,56.50
2022-11-24T20:36:47.526Z,56.30
2022-11-24T20:39:22.584Z,56.10
2022-11-24T20:41:49.496Z,55.80
2022-11-24T20:44:16.782Z,56.00
2022-11-24T20:46:44.261Z,56.10
2022-11-24T20:49:13.643Z,56.10
2022-11-24T20:51:43.908Z,55.90
2022-11-24T20:54:12.856Z,55.80
2022-11-24T20:56:41.726Z,55.80
2022-11-24T20:59:11.473Z,55.90
2022-11-24T21:01:39.469Z,55.80
2022-11-24T21:04:07.480Z,55.70
2022-11-24T21:06:34.906Z,55.60
2022-11-24T21:09:03.940Z,56.30
2022-11-24T21:11:31.312Z,55.60
2022-11-24T21:13:58.229Z,55.60
2022-11-24T21:16:25.973Z,55.70
2022-11-24T21:18:54.656Z,55.60
2022-11-24T21:21:21.948Z,55.40
2022-11-24T21:23:49.085Z,56.10
2022-11-24T21:26:17.299Z,55.60
2022-11-24T21:28:45.320Z,55.60
2022-11-24T21:31:13.358Z,56.00
2022-11-24T21:33:45.397Z,55.30
2022-11-24T21:36:12.898Z,54.30
2022-11-24T21:38:39.641Z,54.90
2022-11-24T21:41:07.264Z,55.10
2022-11-24T21:43:34.122Z,55.30
2022-11-24T21:46:04.645Z,55.30
2022-11-24T21:48:31.691Z,55.60
2022-11-24T21:50:59.377Z,55.00
2022-11-24T21:53:26.716Z,55.60
2022-11-24T21:55:54.269Z,55.10
2022-11-24T21:58:21.264Z,55.30
2022-11-24T22:00:49.457Z,55.50
2022-11-24T22:03:16.533Z,56.10
2022-11-24T22:05:52.189Z,56.00
2022-11-24T22:08:18.965Z,55.70
2022-11-24T22:10:45.703Z,55.90
2022-11-24T22:13:12.532Z,55.90
2022-11-24T22:15:39.235Z,55.90
2022-11-24T22:18:06.034Z,55.90
2022-11-24T22:20:32.818Z,55.80
2022-11-24T22:22:59.516Z,56.00
2022-11-24T22:25:26.798Z,55.90
2022-11-24T22:27:53.556Z,56.00
2022-11-24T22:30:20.229Z,56.00
2022-11-24T22:32:46.950Z,56.10
2022-11-24T22:35:13.660Z,55.70
2022-11-24T22:37:43.369Z,56.00
2022-11-24T22:40:10.182Z,56.10
2022-11-24T22:42:36.862Z,56.30
2022-11-24T22:45:03.726Z,56.10
2022-11-24T22:47:30.476Z,56.10
2022-11-24T22:49:57.149Z,55.70
2022-11-24T22:52:23.829Z,56.10
2022-11-24T22:54:50.541Z,56.20
2022-11-24T22:57:17.249Z,56.20
2022-11-24T22:59:43.960Z,56.10
2022-11-24T23:02:10.717Z,56.10
2022-11-24T23:04:37.727Z,55.70
2022-11-24T23:07:04.737Z,56.10
2022-11-24T23:09:31.507Z,56.10
2022-11-24T23:11:58.440Z,56.10
2022-11-24T23:14:26.840Z,56.20
2022-11-24T23:16:53.995Z,56.30
2022-11-24T23:19:20.799Z,55.60
2022-11-24T23:21:47.572Z,56.10
2022-11-24T23:24:14.382Z,56.20
2022-11-24T23:26:41.520Z,56.30
2022-11-24T23:29:09.639Z,56.30
2022-11-24T23:31:39.739Z,56.40
2022-11-24T23:34:06.916Z,56.00
2022-11-24T23:36:33.723Z,56.30
2022-11-24T23:39:04.619Z,56.30
2022-11-24T23:41:31.921Z,56.40
2022-11-24T23:43:59.013Z,56.40
2022-11-24T23:46:26.928Z,56.30
2022-11-24T23:48:54.378Z,56.10
2022-11-24T23:51:21.082Z,56.30
2022-11-24T23:53:48.245Z,56.50
2022-11-24T23:56:16.166Z,56.20
2022-11-24T23:58:43.083Z,56.30
